createdAt,value
2022-10-14T00:00:23.531Z,12.58
2022-10-14T00:03:31.970Z,12.60
2022-10-14T00:06:53.984Z,12.56
2022-10-14T00:10:09.952Z,12.52
2022-10-14T00:13:11.725Z,12.61
2022-10-14T00:16:29.015Z,12.58
2022-10-14T00:19:37.756Z,12.57
2022-10-14T00:22:52.975Z,12.57
2022-10-14T00:26:00.989Z,12.53
2022-10-14T00:29:13.266Z,12.60
2022-10-14T00:32:21.990Z,12.56
2022-10-14T00:35:36.991Z,12.56
2022-10-14T00:38:38.783Z,12.32
2022-10-14T00:41:54.062Z,12.53
2022-10-14T00:45:11.733Z,12.48
2022-10-14T00:48:21.063Z,12.45
2022-10-14T00:51:29.692Z,12.41
2022-10-14T00:54:44.004Z,12.41
2022-10-14T00:57:52.693Z,12.38
2022-10-14T01:01:07.108Z,12.37
2022-10-14T01:04:08.945Z,12.35
2022-10-14T01:07:46.983Z,12.34
2022-10-14T01:11:23.073Z,12.32
2022-10-14T01:14:45.023Z,12.30
2022-10-14T01:18:18.018Z,12.35
2022-10-14T01:21:37.770Z,12.32
2022-10-14T01:25:12.996Z,12.33
2022-10-14T01:28:49.054Z,12.32
2022-10-14T01:32:02.727Z,12.29
2022-10-14T01:35:30.072Z,12.25
2022-10-14T01:38:53.713Z,12.23
2022-10-14T01:42:16.087Z,12.21
2022-10-14T01:45:27.055Z,12.16
2022-10-14T01:48:46.095Z,12.18
2022-10-14T01:52:08.054Z,12.16
2022-10-14T01:55:23.136Z,12.13
2022-10-14T01:58:34.026Z,12.14
2022-10-14T02:01:43.463Z,12.13
2022-10-14T02:04:52.025Z,12.15
2022-10-14T02:08:13.084Z,12.12
2022-10-14T02:11:25.046Z,12.19
2022-10-14T02:14:43.364Z,12.19
2022-10-14T02:18:05.062Z,12.17
2022-10-14T02:21:28.872Z,12.11
2022-10-14T02:24:42.014Z,12.04
2022-10-14T02:27:59.072Z,12.09
2022-10-14T02:31:04.638Z,12.06
2022-10-14T02:34:24.065Z,12.01
2022-10-14T02:37:27.760Z,12.02
2022-10-14T02:40:47.068Z,12.02
2022-10-14T02:43:55.621Z,12.04
2022-10-14T02:47:10.106Z,12.09
2022-10-14T02:50:19.039Z,12.14
2022-10-14T02:53:34.091Z,12.10
2022-10-14T02:56:35.867Z,11.77
2022-10-14T02:59:51.047Z,11.97
2022-10-14T03:02:52.863Z,11.95
2022-10-14T03:06:08.057Z,11.97
2022-10-14T03:09:09.759Z,11.97
2022-10-14T03:12:24.447Z,11.94
2022-10-14T03:15:33.089Z,11.92
2022-10-14T03:18:41.680Z,11.89
2022-10-14T03:21:50.075Z,11.94
2022-10-14T03:25:05.135Z,11.89
2022-10-14T03:28:13.595Z,11.85
2022-10-14T03:31:22.099Z,11.90
2022-10-14T03:34:37.107Z,11.89
2022-10-14T03:37:38.856Z,11.87
2022-10-14T03:40:53.094Z,11.81
2022-10-14T03:43:54.893Z,11.96
2022-10-14T03:47:10.084Z,12.03
2022-10-14T03:50:19.024Z,12.05
2022-10-14T03:53:27.117Z,12.11
2022-10-14T03:56:42.116Z,12.14
2022-10-14T03:59:50.688Z,12.15
2022-10-14T04:03:05.105Z,12.17
2022-10-14T04:06:07.272Z,12.17
2022-10-14T04:09:22.210Z,12.19
2022-10-14T04:12:24.283Z,12.12
2022-10-14T04:15:41.141Z,12.24
2022-10-14T04:18:42.880Z,12.23
2022-10-14T04:21:57.227Z,12.14
2022-10-14T04:24:58.925Z,12.05
2022-10-14T04:28:14.134Z,11.92
2022-10-14T04:31:22.154Z,11.96
2022-10-14T04:34:37.153Z,11.96
2022-10-14T04:37:45.722Z,11.92
2022-10-14T04:41:00.101Z,11.93
2022-10-14T04:44:08.137Z,11.87
2022-10-14T04:47:23.154Z,11.82
2022-10-14T04:50:31.137Z,11.79
2022-10-14T04:53:46.126Z,11.77
2022-10-14T04:56:48.024Z,11.76
2022-10-14T05:00:03.111Z,11.74
2022-10-14T05:03:13.152Z,11.73
2022-10-14T05:06:28.465Z,11.76
2022-10-14T05:09:37.152Z,11.76
2022-10-14T05:12:45.802Z,11.74
2022-10-14T05:16:00.256Z,11.78
2022-10-14T05:19:08.131Z,11.75
2022-10-14T05:22:17.386Z,11.81
2022-10-14T05:25:26.167Z,11.86
2022-10-14T05:28:41.678Z,11.96
2022-10-14T05:32:01.247Z,12.01
2022-10-14T05:35:09.764Z,11.98
2022-10-14T05:38:18.179Z,12.02
2022-10-14T05:41:33.159Z,12.08
2022-10-14T05:44:35.007Z,11.88
2022-10-14T05:47:51.143Z,11.85
2022-10-14T05:51:05.231Z,12.13
2022-10-14T05:54:13.806Z,12.24
2022-10-14T05:57:22.242Z,12.28
2022-10-14T06:00:33.801Z,12.05
2022-10-14T06:03:42.356Z,12.42
2022-10-14T06:07:05.187Z,13.29
2022-10-14T06:10:17.020Z,14.00
2022-10-14T06:13:33.226Z,14.68
2022-10-14T06:16:42.018Z,14.85
2022-10-14T06:19:50.131Z,15.47
2022-10-14T06:23:06.240Z,15.66
2022-10-14T06:26:15.188Z,15.54
2022-10-14T06:29:30.332Z,15.12
2022-10-14T06:32:32.131Z,15.28
2022-10-14T06:35:47.183Z,14.83
2022-10-14T06:38:55.290Z,14.95
2022-10-14T06:42:04.117Z,15.18
2022-10-14T06:45:19.220Z,14.67
2022-10-14T06:48:28.208Z,14.90
2022-10-14T06:51:43.227Z,14.61
2022-10-14T06:54:51.227Z,14.80
2022-10-14T06:58:06.161Z,15.18
2022-10-14T07:01:09.227Z,15.29
2022-10-14T07:04:24.215Z,14.99
2022-10-14T07:07:39.188Z,14.87
2022-10-14T07:10:55.201Z,14.50
2022-10-14T07:14:04.221Z,15.25
2022-10-14T07:17:12.819Z,14.93
2022-10-14T07:20:21.220Z,14.97
2022-10-14T07:23:29.993Z,15.63
2022-10-14T07:26:46.185Z,15.75
2022-10-14T07:29:48.230Z,15.04
2022-10-14T07:33:03.176Z,16.00
2022-10-14T07:36:17.222Z,15.90
2022-10-14T07:39:28.194Z,15.49
2022-10-14T07:42:43.253Z,16.11
2022-10-14T07:45:45.475Z,16.75
2022-10-14T07:49:01.255Z,16.80
2022-10-14T07:52:03.368Z,16.56
2022-10-14T07:55:18.251Z,16.34
2022-10-14T07:58:30.621Z,15.88
2022-10-14T08:01:45.506Z,15.68
2022-10-14T08:05:33.037Z,15.42
2022-10-14T08:08:36.037Z,15.38
2022-10-14T08:11:53.743Z,15.10
2022-10-14T08:14:56.787Z,15.07
2022-10-14T08:18:12.312Z,15.04
2022-10-14T08:21:21.037Z,15.20
2022-10-14T08:24:29.267Z,15.54
2022-10-14T08:27:37.894Z,15.65
2022-10-14T08:30:52.220Z,15.89
2022-10-14T08:34:01.199Z,15.99
2022-10-14T08:37:09.248Z,16.10
2022-10-14T08:40:17.987Z,16.16
2022-10-14T08:43:37.265Z,15.99
2022-10-14T08:47:05.823Z,16.24
2022-10-14T08:50:23.831Z,16.58
2022-10-14T08:53:45.251Z,16.41
2022-10-14T08:56:55.102Z,16.27
2022-10-14T09:00:04.231Z,16.26
2022-10-14T09:03:20.459Z,16.37
2022-10-14T09:06:48.395Z,16.52
2022-10-14T09:10:09.461Z,16.28
2022-10-14T09:13:29.392Z,16.23
2022-10-14T09:16:51.717Z,16.38
2022-10-14T09:20:16.393Z,16.33
2022-10-14T09:23:34.244Z,16.47
2022-10-14T09:26:53.475Z,17.12
2022-10-14T09:30:07.340Z,17.11
2022-10-14T09:33:19.692Z,17.09
2022-10-14T09:36:28.316Z,17.19
2022-10-14T09:39:39.626Z,17.43
2022-10-14T09:42:59.300Z,17.41
2022-10-14T09:46:15.297Z,17.46
2022-10-14T09:49:21.501Z,17.79
2022-10-14T09:52:37.355Z,17.69
2022-10-14T09:55:48.933Z,17.49
2022-10-14T09:59:04.256Z,17.61
2022-10-14T10:02:23.659Z,17.81
2022-10-14T10:05:38.948Z,17.89
2022-10-14T10:09:04.338Z,17.93
2022-10-14T10:12:30.284Z,17.91
2022-10-14T10:15:39.079Z,18.01
2022-10-14T10:18:47.311Z,18.14
2022-10-14T10:22:32.304Z,18.40
2022-10-14T10:25:47.324Z,18.33
2022-10-14T10:28:49.674Z,18.34
2022-10-14T10:32:23.536Z,18.45
2022-10-14T10:35:51.559Z,18.40
2022-10-14T10:39:24.087Z,18.52
2022-10-14T10:42:50.368Z,18.67
2022-10-14T10:46:22.417Z,18.74
2022-10-14T10:49:52.488Z,18.80
2022-10-14T10:53:21.370Z,19.04
2022-10-14T10:56:51.982Z,19.06
2022-10-14T11:00:10.413Z,19.00
2022-10-14T11:03:50.781Z,19.19
2022-10-14T11:07:27.916Z,19.30
2022-10-14T11:10:41.254Z,19.40
2022-10-14T11:14:03.638Z,19.43
2022-10-14T11:17:20.330Z,19.61
2022-10-14T11:20:57.393Z,19.78
2022-10-14T11:24:19.318Z,20.58
2022-10-14T11:27:37.416Z,26.50
2022-10-14T11:30:55.194Z,28.87
2022-10-14T11:34:41.988Z,29.69
2022-10-14T11:38:13.382Z,31.26
2022-10-14T11:41:42.397Z,31.08
2022-10-14T11:45:20.251Z,31.46
2022-10-14T11:48:33.775Z,31.64
2022-10-14T11:51:59.624Z,31.13
2022-10-14T11:55:23.394Z,31.12
2022-10-14T11:58:42.375Z,31.01
2022-10-14T12:01:52.393Z,31.08
2022-10-14T12:05:22.493Z,29.93
2022-10-14T12:08:40.534Z,30.97
2022-10-14T12:12:02.847Z,30.81
2022-10-14T12:15:10.309Z,30.36
2022-10-14T12:18:25.513Z,30.45
2022-10-14T12:22:04.607Z,30.03
2022-10-14T12:25:22.367Z,26.27
2022-10-14T12:28:31.671Z,23.47
2022-10-14T12:31:47.404Z,22.58
2022-10-14T12:35:34.368Z,23.41
2022-10-14T12:39:29.358Z,26.23
2022-10-14T12:42:57.269Z,27.03
2022-10-14T12:46:15.481Z,24.41
2022-10-14T12:49:31.339Z,23.70
2022-10-14T12:52:47.446Z,25.68
2022-10-14T12:56:02.362Z,25.50
2022-10-14T12:59:30.414Z,25.59
2022-10-14T13:02:46.033Z,26.06
2022-10-14T13:05:54.407Z,26.45
2022-10-14T13:09:25.429Z,23.66
2022-10-14T13:12:39.751Z,22.05
2022-10-14T13:15:58.675Z,21.09
2022-10-14T13:19:43.587Z,20.74
2022-10-14T13:26:40.421Z,20.19
2022-10-14T13:30:10.541Z,20.10
2022-10-14T13:33:44.422Z,19.80
2022-10-14T13:37:25.559Z,19.82
2022-10-14T13:40:39.307Z,19.68
2022-10-14T13:43:54.527Z,19.62
2022-10-14T13:47:03.816Z,19.57
2022-10-14T13:50:19.543Z,19.54
2022-10-14T13:53:22.647Z,19.27
2022-10-14T13:56:38.529Z,19.33
2022-10-14T14:00:37.887Z,19.37
2022-10-14T14:03:41.749Z,19.28
2022-10-14T14:07:03.412Z,19.26
2022-10-14T14:10:30.447Z,19.22
2022-10-14T14:13:46.973Z,19.17
2022-10-14T14:17:07.525Z,19.05
2022-10-14T14:20:20.936Z,19.05
2022-10-14T14:23:29.492Z,19.02
2022-10-14T14:26:45.461Z,19.00
2022-10-14T14:29:55.155Z,18.97
2022-10-14T14:33:07.507Z,18.98
2022-10-14T14:36:27.518Z,18.98
2022-10-14T14:39:42.543Z,18.94
2022-10-14T14:43:01.641Z,18.90
2022-10-14T14:46:24.517Z,18.91
2022-10-14T14:49:31.612Z,18.88
2022-10-14T14:56:22.489Z,18.95
2022-10-14T14:59:38.606Z,18.89
2022-10-14T15:02:56.541Z,18.90
2022-10-14T15:06:01.834Z,18.83
2022-10-14T15:09:29.559Z,18.79
2022-10-14T15:12:46.501Z,18.72
2022-10-14T15:15:59.558Z,18.67
2022-10-14T15:19:26.590Z,18.60
2022-10-14T15:22:45.511Z,18.55
2022-10-14T15:26:07.100Z,18.52
2022-10-14T15:29:15.415Z,18.46
2022-10-14T15:32:32.821Z,18.38
2022-10-14T15:35:42.506Z,18.30
2022-10-14T15:39:01.558Z,18.20
2022-10-14T15:42:18.950Z,18.10
2022-10-14T15:45:30.524Z,18.05
2022-10-14T15:48:38.654Z,18.00
2022-10-14T15:51:47.316Z,17.95
2022-10-14T15:54:55.698Z,17.87
2022-10-14T15:58:04.207Z,17.85
2022-10-14T16:01:27.621Z,17.86
2022-10-14T16:04:29.484Z,17.78
2022-10-14T16:07:45.538Z,17.74
2022-10-14T16:11:00.547Z,17.68
2022-10-14T16:14:08.646Z,17.62
2022-10-14T16:17:17.343Z,17.44
2022-10-14T16:20:25.599Z,17.52
2022-10-14T16:23:34.210Z,17.43
2022-10-14T16:26:48.557Z,17.44
2022-10-14T16:30:04.600Z,17.38
2022-10-14T16:33:13.229Z,17.31
2022-10-14T16:36:21.532Z,17.38
2022-10-14T16:39:36.551Z,17.31
2022-10-14T16:42:45.201Z,17.36
2022-10-14T16:45:53.535Z,17.39
2022-10-14T16:49:10.578Z,17.39
2022-10-14T16:52:12.842Z,17.11
2022-10-14T16:55:31.648Z,17.29
2022-10-14T16:58:39.632Z,17.26
2022-10-14T17:01:48.901Z,17.22
2022-10-14T17:04:57.713Z,17.20
2022-10-14T17:08:13.136Z,17.15
2022-10-14T17:11:21.667Z,17.12
2022-10-14T17:14:30.226Z,17.07
2022-10-14T17:17:39.589Z,16.95
2022-10-14T17:20:48.514Z,16.97
2022-10-14T17:23:56.603Z,16.91
2022-10-14T17:27:05.243Z,16.86
2022-10-14T17:30:14.591Z,16.85
2022-10-14T17:33:23.304Z,16.81
2022-10-14T17:36:33.898Z,16.75
2022-10-14T17:39:48.616Z,16.74
2022-10-14T17:42:56.628Z,16.69
2022-10-14T17:49:21.615Z,16.63
2022-10-14T17:52:36.615Z,16.44
2022-10-14T17:55:41.253Z,16.55
2022-10-14T17:59:00.610Z,16.53
2022-10-14T18:02:28.300Z,16.54
2022-10-14T18:05:36.704Z,16.52
2022-10-14T18:08:54.889Z,16.47
2022-10-14T18:12:10.337Z,16.45
2022-10-14T18:15:12.573Z,16.44
2022-10-14T18:18:27.625Z,16.28
2022-10-14T18:21:36.600Z,16.35
2022-10-14T18:24:45.283Z,16.31
2022-10-14T18:27:53.595Z,16.31
2022-10-14T18:31:05.882Z,16.26
2022-10-14T18:34:17.691Z,16.19
2022-10-14T18:37:26.257Z,16.15
2022-10-14T18:40:40.603Z,16.03
2022-10-14T18:43:42.499Z,16.08
2022-10-14T18:46:57.651Z,16.04
2022-10-14T18:50:05.631Z,15.98
2022-10-14T18:53:20.596Z,15.94
2022-10-14T18:56:31.626Z,15.96
2022-10-14T18:59:46.614Z,15.94
2022-10-14T19:02:48.941Z,15.90
2022-10-14T19:06:04.673Z,15.88
2022-10-14T19:09:21.442Z,15.90
2022-10-14T19:12:29.655Z,15.87
2022-10-14T19:15:43.209Z,15.73
2022-10-14T19:18:53.655Z,15.78
2022-10-14T19:22:08.747Z,15.67
2022-10-14T19:25:23.658Z,15.74
2022-10-14T19:28:32.713Z,15.71
2022-10-14T19:31:48.813Z,15.72
2022-10-14T19:34:50.679Z,15.69
2022-10-14T19:38:05.715Z,15.63
2022-10-14T19:41:08.444Z,15.51
2022-10-14T19:44:24.689Z,15.43
2022-10-14T19:47:33.264Z,15.32
2022-10-14T19:50:52.813Z,15.35
2022-10-14T19:54:08.665Z,15.39
2022-10-14T19:57:19.865Z,15.36
2022-10-14T20:00:35.708Z,15.32
2022-10-14T20:03:45.651Z,15.23
2022-10-14T20:07:01.046Z,15.29
2022-10-14T20:10:09.637Z,15.23
2022-10-14T20:13:25.674Z,15.07
2022-10-14T20:16:40.687Z,14.99
2022-10-14T20:19:49.450Z,14.89
2022-10-14T20:23:03.700Z,14.87
2022-10-14T20:26:16.150Z,14.84
2022-10-14T20:29:24.680Z,14.79
2022-10-14T20:32:33.317Z,14.73
2022-10-14T20:35:47.768Z,14.62
2022-10-14T20:38:50.186Z,14.61
2022-10-14T20:42:04.784Z,14.55
2022-10-14T20:45:16.574Z,14.55
2022-10-14T20:48:31.771Z,14.56
2022-10-14T20:51:40.970Z,14.59
2022-10-14T20:54:55.710Z,14.58
2022-10-14T20:58:03.693Z,14.49
2022-10-14T21:01:22.699Z,14.56
2022-10-14T21:04:31.705Z,14.55
2022-10-14T21:07:46.953Z,14.56
2022-10-14T21:11:09.183Z,14.57
2022-10-14T21:14:20.776Z,14.59
2022-10-14T21:17:29.382Z,14.56
2022-10-14T21:20:41.747Z,14.58
2022-10-14T21:23:56.755Z,14.55
2022-10-14T21:26:58.468Z,14.56
2022-10-14T21:30:13.687Z,14.58
2022-10-14T21:33:21.731Z,14.60
2022-10-14T21:36:36.693Z,14.60
2022-10-14T21:39:51.795Z,14.53
2022-10-14T21:42:53.559Z,14.54
2022-10-14T21:46:19.080Z,14.57
2022-10-14T21:49:27.744Z,14.58
2022-10-14T21:52:42.752Z,14.54
2022-10-14T21:55:58.750Z,14.49
2022-10-14T21:59:06.765Z,14.47
2022-10-14T22:02:21.805Z,14.44
2022-10-14T22:05:30.712Z,14.44
2022-10-14T22:08:48.233Z,14.43
2022-10-14T22:12:02.773Z,14.37
2022-10-14T22:15:11.316Z,14.35
2022-10-14T22:18:19.788Z,14.24
2022-10-14T22:21:36.791Z,14.13
2022-10-14T22:24:38.664Z,14.08
2022-10-14T22:27:53.710Z,13.83
2022-10-14T22:31:01.751Z,13.91
2022-10-14T22:34:19.801Z,13.89
2022-10-14T22:37:22.091Z,13.63
2022-10-14T22:40:36.822Z,13.90
2022-10-14T22:43:38.937Z,13.88
2022-10-14T22:46:53.727Z,13.87
2022-10-14T22:49:55.585Z,13.79
2022-10-14T22:53:10.754Z,13.76
2022-10-14T22:56:27.771Z,13.46
2022-10-14T22:59:35.764Z,13.78
2022-10-14T23:02:45.318Z,13.78
2022-10-14T23:05:53.771Z,13.74
2022-10-14T23:09:15.803Z,13.73
2022-10-14T23:12:18.156Z,13.70
2022-10-14T23:15:32.751Z,13.70
2022-10-14T23:18:43.783Z,13.68
2022-10-14T23:21:58.816Z,13.64
2022-10-14T23:25:00.755Z,13.61
2022-10-14T23:28:16.847Z,13.63
2022-10-14T23:31:21.182Z,13.58
2022-10-14T23:34:35.837Z,13.57
2022-10-14T23:37:44.461Z,13.53
2022-10-14T23:40:52.939Z,13.46
2022-10-14T23:44:07.836Z,13.45
2022-10-14T23:47:15.804Z,13.42
2022-10-14T23:50:30.830Z,13.40
2022-10-14T23:53:33.459Z,13.36
2022-10-14T23:56:47.810Z,13.33
2022-10-14T23:59:56.372Z,13.29
